Time;durP1;ratioP1;P1;durP2;ratioP2;P2;SDS_P1;SDS_P2;PMS_P1;PMS_P2;Temp;Humidity;BMP_temperature;BMP_pressure;BME280_temperature;BME280_humidity;BME280_pressure;Samples;Min_cycle;Max_cycle;Signal;HPM_P1;HPM_P2
2023/08/18 00:00:11;;;;;;;;;31.67;26.67;;;;;25.34;57.25;101012.22;5037449;28;45468;-65
2023/08/18 00:02:40;;;;;;;;;30.67;23.67;;;;;25.20;57.46;100984.44;5036149;28;45500;-64
2023/08/18 00:05:06;;;;;;;;;30.00;25.67;;;;;25.05;58.40;100991.47;5031900;28;45386;-65
2023/08/18 00:07:32;;;;;;;;;30.00;23.00;;;;;24.93;58.38;100993.88;5035214;28;45692;-64
2023/08/18 00:10:04;;;;;;;;;24.00;20.33;;;;;24.94;58.59;100995.63;5034893;28;45466;-66
2023/08/18 00:12:30;;;;;;;;;19.33;18.67;;;;;24.91;58.68;100987.72;5035122;28;45406;-64
2023/08/18 00:14:56;;;;;;;;;22.33;20.33;;;;;24.90;58.50;100986.00;5035912;28;45950;-64
2023/08/18 00:17:22;;;;;;;;;28.00;24.00;;;;;24.84;59.08;100988.13;5035926;28;45452;-64
2023/08/18 00:19:47;;;;;;;;;30.00;27.00;;;;;24.87;59.12;100990.69;5036523;28;45351;-63
2023/08/18 00:22:13;;;;;;;;;28.67;25.33;;;;;24.75;59.68;100984.16;5034414;28;45538;-64
2023/08/18 00:24:39;;;;;;;;;23.67;21.67;;;;;24.67;59.96;100994.41;5036046;28;45465;-64
2023/08/18 00:27:04;;;;;;;;;25.33;22.67;;;;;24.70;59.54;100995.13;5036368;28;45459;-64
2023/08/18 00:29:33;;;;;;;;;28.00;21.67;;;;;24.69;59.91;100992.50;5037569;28;45300;-65
2023/08/18 00:31:59;;;;;;;;;18.67;15.00;;;;;24.60;60.04;100983.13;5036315;28;46102;-64
2023/08/18 00:34:25;;;;;;;;;28.33;27.00;;;;;24.63;60.29;100993.72;5035819;28;46538;-64
2023/08/18 00:36:51;;;;;;;;;25.67;23.00;;;;;24.66;60.63;100988.19;5035591;28;45457;-64
2023/08/18 00:39:24;;;;;;;;;22.67;21.33;;;;;24.59;60.70;100976.06;5035739;28;45836;-64
2023/08/18 00:41:49;;;;;;;;;27.00;22.67;;;;;24.52;61.16;100980.00;5035507;28;45307;-64
2023/08/18 00:44:15;;;;;;;;;24.33;23.67;;;;;24.58;60.31;100981.50;5036224;28;45445;-64
2023/08/18 00:46:42;;;;;;;;;25.00;24.00;;;;;24.54;60.59;100967.41;5036441;28;45442;-64
2023/08/18 00:49:09;;;;;;;;;31.67;26.00;;;;;24.55;60.35;100967.31;5039610;28;45459;-66
2023/08/18 00:51:40;;;;;;;;;30.33;27.00;;;;;24.59;60.68;100981.41;5039730;28;45387;-65
2023/08/18 00:54:06;;;;;;;;;25.33;23.67;;;;;24.54;61.35;100981.66;5040420;28;46240;-65
2023/08/18 00:56:33;;;;;;;;;32.00;24.67;;;;;24.51;61.27;100979.16;5040482;28;45248;-64
2023/08/18 00:58:59;;;;;;;;;27.67;25.00;;;;;24.54;61.40;100981.66;5039625;28;45443;-65
2023/08/18 01:01:26;;;;;;;;;23.33;21.33;;;;;24.36;61.21;100953.13;5039436;28;45586;-66
2023/08/18 01:03:53;;;;;;;;;32.33;27.00;;;;;24.39;61.51;100955.66;5038925;28;47135;-64
2023/08/18 01:06:19;;;;;;;;;30.00;26.00;;;;;24.39;62.06;100969.03;5039429;28;45477;-66
2023/08/18 01:08:45;;;;;;;;;24.33;22.00;;;;;24.30;62.11;100974.88;5040277;28;45493;-65
2023/08/18 01:11:32;;;;;;;;;25.67;23.67;;;;;24.37;62.00;100972.72;5040801;28;45267;-65
2023/08/18 01:14:13;;;;;;;;;29.33;23.00;;;;;24.39;62.15;100973.53;5039982;28;46044;-66
2023/08/18 01:16:41;;;;;;;;;22.67;20.67;;;;;;;;5039235;28;45396;-66
2023/08/18 01:19:13;;;;;;;;;25.67;21.00;;;;;24.24;62.63;100968.03;5039497;28;45428;-65
2023/08/18 01:21:41;;;;;;;;;23.00;20.33;;;;;24.34;62.09;100957.69;5039440;28;45810;-64
2023/08/18 01:24:06;;;;;;;;;27.00;22.00;;;;;24.34;62.13;100960.38;5038470;28;46294;-65
2023/08/18 01:26:32;;;;;;;;;23.00;18.67;;;;;24.26;62.25;100944.72;5038786;28;45447;-65
2023/08/18 01:28:57;;;;;;;;;25.67;22.67;;;;;;;;5039128;28;45253;-65
2023/08/18 01:31:27;;;;;;;;;26.33;23.33;;;;;;;;5039359;28;45311;-65
2023/08/18 01:33:58;;;;;;;;;26.00;24.00;;;;;24.34;62.28;100953.25;5038571;28;45460;-65
2023/08/18 01:36:32;;;;;;;;;27.00;24.33;;;;;24.34;62.53;100963.06;5037448;28;45461;-65
2023/08/18 01:39:00;;;;;;;;;27.33;24.67;;;;;24.30;62.22;100953.47;5039563;28;45682;-67
2023/08/18 01:41:27;;;;;;;;;30.67;25.67;;;;;24.30;62.37;100965.03;5039292;28;45576;-66
2023/08/18 01:43:53;;;;;;;;;24.33;18.67;;;;;24.31;62.45;100955.19;5038695;28;45850;-66
2023/08/18 01:46:18;;;;;;;;;29.33;26.00;;;;;24.15;63.23;100946.22;5038126;28;45443;-66
2023/08/18 01:48:44;;;;;;;;;21.33;19.67;;;;;24.12;62.63;100950.78;5039366;28;45408;-65
2023/08/18 01:51:10;;;;;;;;;22.00;19.33;;;;;24.23;62.60;100950.25;5043573;28;45496;-65
2023/08/18 01:53:36;;;;;;;;;27.00;23.67;;;;;24.15;63.19;100941.72;5037842;28;46008;-65
2023/08/18 01:56:02;;;;;;;;;25.00;22.67;;;;;24.17;63.19;100945.19;5038600;28;45361;-66
2023/08/18 01:58:29;;;;;;;;;29.33;24.00;;;;;24.06;63.54;100931.50;5039170;28;45405;-65
2023/08/18 02:00:58;;;;;;;;;22.33;22.33;;;;;24.07;63.36;100943.94;5039386;28;45770;-65
2023/08/18 02:03:26;;;;;;;;;26.00;23.33;;;;;24.13;62.92;100938.25;5039371;28;45422;-66
2023/08/18 02:05:56;;;;;;;;;24.33;20.67;;;;;24.16;63.83;100935.44;5039511;28;45383;-65
2023/08/18 02:08:22;;;;;;;;;25.67;20.33;;;;;24.15;63.13;100936.38;5038928;28;45280;-65
2023/08/18 02:10:48;;;;;;;;;29.33;25.00;;;;;24.13;63.64;100941.81;5038538;28;45457;-65
2023/08/18 02:13:14;;;;;;;;;27.33;24.67;;;;;24.11;63.77;100935.69;5038575;28;45487;-67
2023/08/18 02:15:40;;;;;;;;;22.00;20.67;;;;;24.10;63.70;100925.03;5038002;28;45385;-64
2023/08/18 02:18:05;;;;;;;;;23.33;22.67;;;;;24.10;63.77;100925.03;5038494;28;45409;-65
2023/08/18 02:20:31;;;;;;;;;26.33;23.33;;;;;24.09;63.94;100931.34;5038085;28;45421;-65
2023/08/18 02:22:57;;;;;;;;;17.33;17.00;;;;;24.09;63.77;100929.53;5037950;28;45883;-66
2023/08/18 02:25:23;;;;;;;;;27.33;25.33;;;;;23.82;64.31;100898.84;5038170;28;45497;-65
2023/08/18 02:27:49;;;;;;;;;28.33;27.00;;;;;24.00;64.30;100935.34;5039248;28;45321;-65
2023/08/18 02:30:14;;;;;;;;;23.00;21.33;;;;;23.94;64.88;100932.13;5039648;28;45403;-65
2023/08/18 02:32:40;;;;;;;;;27.67;24.67;;;;;23.82;64.64;100925.59;5038702;28;45934;-65
2023/08/18 02:35:06;;;;;;;;;24.00;21.67;;;;;23.82;64.70;100921.09;5037773;28;45424;-65
2023/08/18 02:37:31;;;;;;;;;27.67;24.33;;;;;23.92;65.00;100932.22;5038227;28;45724;-65
2023/08/18 02:39:57;;;;;;;;;28.33;23.33;;;;;23.86;64.71;100913.78;5038095;28;45414;-65
2023/08/18 02:42:23;;;;;;;;;27.00;24.00;;;;;23.91;64.09;100920.63;5037531;28;46044;-65
2023/08/18 02:44:48;;;;;;;;;26.33;22.67;;;;;23.99;64.20;100935.44;5037772;28;45434;-65
2023/08/18 02:47:14;;;;;;;;;26.67;23.00;;;;;23.99;64.66;100922.03;5038174;28;45585;-65
2023/08/18 02:49:39;;;;;;;;;26.33;23.33;;;;;23.98;64.53;100917.66;5038820;28;45398;-65
2023/08/18 02:52:05;;;;;;;;;34.00;25.67;;;;;23.81;64.94;100908.69;5038311;28;46949;-64
2023/08/18 02:54:31;;;;;;;;;27.33;24.67;;;;;23.82;64.78;100907.72;5036822;28;45571;-65
2023/08/18 02:56:57;;;;;;;;;25.67;24.00;;;;;23.92;64.30;100911.69;5038396;28;45565;-65
2023/08/18 02:59:23;;;;;;;;;25.33;23.33;;;;;23.97;64.34;100902.56;5037968;28;45331;-64
2023/08/18 03:01:48;;;;;;;;;29.67;26.00;;;;;23.92;65.17;100916.16;5038302;28;46209;-64
2023/08/18 03:04:14;;;;;;;;;28.33;24.67;;;;;23.89;65.01;100914.53;5038805;28;45373;-64
2023/08/18 03:06:40;;;;;;;;;25.00;24.00;;;;;23.78;64.95;100889.25;5037809;28;45305;-65
2023/08/18 03:09:05;;;;;;;;;31.33;25.00;;;;;23.87;64.83;100907.50;5037302;28;45405;-65
2023/08/18 03:11:31;;;;;;;;;27.00;21.33;;;;;23.88;64.91;100902.06;5038182;28;45947;-65
2023/08/18 03:13:57;;;;;;;;;25.33;20.33;;;;;23.94;64.61;100898.22;5037071;28;45385;-65
2023/08/18 03:16:22;;;;;;;;;24.67;20.33;;;;;23.97;64.99;100895.41;5037269;28;45479;-65
2023/08/18 03:18:48;;;;;;;;;23.33;20.67;;;;;23.99;64.22;100900.66;5037501;28;45490;-64
2023/08/18 03:21:13;;;;;;;;;29.00;25.00;;;;;23.91;64.53;100887.66;5037902;28;46093;-64
2023/08/18 03:23:39;;;;;;;;;27.67;27.33;;;;;23.97;64.53;100887.38;5038164;28;45492;-64
2023/08/18 03:26:05;;;;;;;;;27.00;24.33;;;;;23.95;64.96;100885.72;5036972;28;45892;-63
2023/08/18 03:28:33;;;;;;;;;30.00;27.00;;;;;23.91;65.03;100893.03;5037447;28;45701;-65
2023/08/18 03:31:01;;;;;;;;;31.00;25.33;;;;;23.79;65.30;100889.16;5036719;28;45798;-64
2023/08/18 03:33:27;;;;;;;;;25.33;23.00;;;;;23.79;65.18;100889.16;5036973;28;45421;-64
2023/08/18 03:35:53;;;;;;;;;28.00;24.33;;;;;23.80;65.25;100888.22;5036727;28;45349;-65
2023/08/18 03:38:18;;;;;;;;;24.67;22.67;;;;;23.74;65.83;100893.03;5037231;28;45342;-64
2023/08/18 03:40:44;;;;;;;;;27.00;21.33;;;;;23.63;66.19;100882.81;5036639;28;46151;-64
2023/08/18 03:43:10;;;;;;;;;30.67;24.00;;;;;23.63;66.30;100886.38;5036273;28;45694;-63
2023/08/18 03:45:35;;;;;;;;;33.33;23.33;;;;;23.54;66.01;100881.50;5037687;28;45514;-64
2023/08/18 03:48:01;;;;;;;;;34.67;26.33;;;;;23.59;66.60;100883.94;5039061;28;45408;-64
2023/08/18 03:50:26;;;;;;;;;32.00;26.00;;;;;23.54;66.55;100867.22;5053569;28;45622;-62
2023/08/18 03:52:52;;;;;;;;;29.67;28.33;;;;;23.60;66.16;100866.94;5036509;28;45381;-62
2023/08/18 03:55:18;;;;;;;;;26.33;22.33;;;;;23.57;66.52;100873.31;5037088;28;45525;-61
2023/08/18 03:57:43;;;;;;;;;31.33;26.67;;;;;23.50;66.51;100866.53;5037043;28;45572;-62
2023/08/18 04:00:10;;;;;;;;;25.00;23.00;;;;;23.55;66.45;100885.03;5036399;28;45653;-62
2023/08/18 04:02:35;;;;;;;;;24.67;24.00;;;;;23.56;66.60;100873.38;5036490;28;45515;-62
2023/08/18 04:05:01;;;;;;;;;31.00;28.67;;;;;23.58;66.56;100876.84;5036619;28;45383;-63
2023/08/18 04:07:27;;;;;;;;;24.67;23.33;;;;;23.56;66.86;100870.69;5035518;28;45318;-62
2023/08/18 04:09:52;;;;;;;;;26.33;24.67;;;;;23.41;66.80;100872.34;5036491;28;45451;-62
2023/08/18 04:12:18;;;;;;;;;24.67;22.00;;;;;23.44;66.48;100856.13;5037407;28;45435;-62
2023/08/18 04:14:43;;;;;;;;;33.67;26.67;;;;;23.54;66.94;100884.16;5036756;28;45537;-63
2023/08/18 04:17:09;;;;;;;;;28.67;25.33;;;;;23.56;66.62;100868.88;5037520;28;45520;-63
2023/08/18 04:19:35;;;;;;;;;25.33;21.00;;;;;23.45;66.40;100871.25;5037163;28;45487;-71
2023/08/18 04:22:01;;;;;;;;;28.67;26.00;;;;;23.45;66.95;100874.78;5035797;28;45357;-68
2023/08/18 04:24:27;;;;;;;;;34.33;27.33;;;;;23.52;67.12;100877.16;5036789;28;45406;-65
2023/08/18 04:27:01;;;;;;;;;31.67;28.33;;;;;23.49;66.59;100880.81;5037076;28;45500;-75
2023/08/18 04:29:27;;;;;;;;;28.67;26.00;;;;;23.51;67.04;100868.25;5025987;28;47149;-66
2023/08/18 04:31:57;;;;;;;;;24.67;21.67;;;;;23.48;66.92;100869.28;5036389;28;45911;-67
2023/08/18 04:34:23;;;;;;;;;32.00;28.33;;;;;23.39;67.37;100877.75;5036672;28;45372;-62
2023/08/18 04:36:48;;;;;;;;;31.33;25.33;;;;;22.63;67.78;100756.75;5036815;28;45490;-65
2023/08/18 04:39:15;;;;;;;;;27.00;22.33;;;;;23.14;67.13;100824.66;5036677;28;46315;-64
2023/08/18 04:41:41;;;;;;;;;41.33;34.00;;;;;23.46;67.11;100870.28;5036373;28;45568;-63
2023/08/18 04:44:07;;;;;;;;;38.33;33.33;;;;;23.20;67.41;100829.69;5036620;28;45753;-64
2023/08/18 04:46:32;;;;;;;;;33.33;29.67;;;;;23.11;67.57;100807.91;5036436;28;45408;-62
2023/08/18 04:48:58;;;;;;;;;27.67;23.33;;;;;23.44;67.48;100866.81;5036702;28;45481;-64
2023/08/18 04:51:24;;;;;;;;;28.67;23.00;;;;;23.44;67.35;100861.47;5036061;28;45377;-63
2023/08/18 04:53:50;;;;;;;;;27.67;25.33;;;;;23.31;67.59;100839.00;5036633;28;45354;-63
2023/08/18 04:56:15;;;;;;;;;31.67;29.67;;;;;23.31;67.63;100852.38;5036745;28;45338;-66
2023/08/18 04:58:41;;;;;;;;;28.67;26.67;;;;;23.36;68.07;100863.69;5035763;28;46214;-64
2023/08/18 05:01:10;;;;;;;;;28.33;22.67;;;;;23.38;67.96;100854.66;5036211;28;45476;-72
2023/08/18 05:03:36;;;;;;;;;27.33;24.33;;;;;23.42;67.64;100864.25;5036208;28;45363;-63
2023/08/18 05:06:09;;;;;;;;;30.00;26.33;;;;;23.44;68.03;100861.47;5035925;28;45410;-65
2023/08/18 05:08:37;;;;;;;;;25.33;22.67;;;;;23.44;67.74;100856.13;5035279;28;45966;-66
2023/08/18 05:11:07;;;;;;;;;28.00;26.33;;;;;23.38;67.81;100841.28;5035048;28;45568;-70
2023/08/18 05:13:34;;;;;;;;;29.67;25.00;;;;;23.48;67.63;100849.72;5032771;28;45347;-68
2023/08/18 05:16:00;;;;;;;;;29.00;25.67;;;;;23.38;67.47;100819.91;5034768;28;45472;-71
2023/08/18 05:19:05;;;;;;;;;26.33;24.33;;;;;23.60;67.82;100853.56;5050918;28;47739;-65
2023/08/18 05:21:31;;;;;;;;;30.33;24.00;;;;;23.28;67.87;100806.13;5036430;28;45476;-66
2023/08/18 05:23:56;;;;;;;;;38.00;26.67;;;;;23.18;68.11;100798.63;5035323;28;45377;-66
2023/08/18 05:26:25;;;;;;;;;27.33;26.00;;;;;23.63;67.49;100845.38;5035564;28;45441;-65
2023/08/18 05:28:50;;;;;;;;;30.33;26.67;;;;;23.75;67.41;100843.94;5050608;28;46894;-62
2023/08/18 05:31:16;;;;;;;;;31.33;30.00;;;;;23.84;66.68;100846.13;5035564;28;45613;-63
2023/08/18 05:34:07;;;;;;;;;34.33;24.00;;;;;23.66;66.94;100818.50;5035443;28;45707;-64
2023/08/18 05:36:33;;;;;;;;;33.67;26.33;;;;;23.38;66.87;100755.75;5038661;28;45547;-64
2023/08/18 05:39:03;;;;;;;;;28.33;24.67;;;;;23.95;66.40;100833.06;5038233;28;46480;-62
2023/08/18 05:41:29;;;;;;;;;29.67;29.67;;;;;23.85;66.64;100805.09;5038557;28;45561;-63
2023/08/18 05:44:14;;;;;;;;;25.00;24.67;;;;;24.15;66.31;100831.16;5049392;28;45704;-63
2023/08/18 05:46:44;;;;;;;;;28.33;25.00;;;;;23.99;66.49;100829.31;5038010;28;45534;-65
2023/08/18 05:49:10;;;;;;;;;26.00;23.67;;;;;24.02;65.83;100806.88;5036235;28;46669;-64
2023/08/18 05:51:35;;;;;;;;;30.67;30.00;;;;;24.07;66.55;100823.53;5039447;28;45432;-65
2023/08/18 05:54:03;;;;;;;;;32.67;28.33;;;;;24.20;65.87;100837.13;5038447;28;45674;-64
2023/08/18 05:56:29;;;;;;;;;27.00;21.67;;;;;24.19;65.98;100836.25;5038307;28;45543;-64
2023/08/18 05:58:56;;;;;;;;;29.00;26.67;;;;;24.17;66.17;100827.44;5037657;28;45589;-65
2023/08/18 06:01:22;;;;;;;;;27.00;20.67;;;;;24.35;65.59;100833.63;5034500;28;45440;-64
2023/08/18 06:04:03;;;;;;;;;30.33;26.33;;;;;24.24;65.17;100798.56;5039013;28;45472;-63
2023/08/18 06:06:29;;;;;;;;;29.67;28.33;;;;;24.60;65.02;100835.84;5028777;28;45577;-64
2023/08/18 06:08:54;;;;;;;;;28.33;26.00;;;;;24.51;64.48;100805.13;5028021;28;46172;-63
2023/08/18 06:11:53;;;;;;;;;30.00;27.00;;;;;24.85;64.05;100830.00;5038097;28;45383;-66
2023/08/18 06:17:41;;;;;;;;;29.33;26.00;;;;;24.85;63.72;100813.94;4948782;28;45390;-63
2023/08/18 06:20:07;;;;;;;;;29.33;25.33;;;;;25.06;63.48;100824.41;5037725;28;46273;-64
2023/08/18 06:22:33;;;;;;;;;32.00;27.67;;;;;24.98;63.04;100806.06;5037263;28;45453;-64
2023/08/18 06:25:03;;;;;;;;;28.00;25.33;;;;;25.01;63.25;100815.75;5038174;28;45434;-63
2023/08/18 06:27:29;;;;;;;;;23.33;21.67;;;;;24.98;63.17;100819.47;5037980;28;45533;-64
2023/08/18 06:29:55;;;;;;;;;27.67;23.33;;;;;24.94;63.54;100805.38;5037366;28;45772;-65
2023/08/18 06:32:21;;;;;;;;;31.00;28.00;;;;;25.04;63.57;100815.59;5037510;28;45423;-64
2023/08/18 06:34:46;;;;;;;;;28.67;25.67;;;;;24.72;63.82;100783.44;5037889;28;45583;-66
2023/08/18 06:37:12;;;;;;;;;30.33;27.67;;;;;24.96;63.82;100811.53;5037740;28;45595;-67
2023/08/18 06:39:38;;;;;;;;;30.33;26.00;;;;;24.71;63.55;100752.25;5038944;28;45480;-64
2023/08/18 06:42:03;;;;;;;;;26.67;24.67;;;;;25.08;63.76;100827.84;5038216;28;45331;-65
2023/08/18 06:44:30;;;;;;;;;25.33;23.33;;;;;25.08;64.10;100830.50;5036394;28;45441;-66
2023/08/18 06:46:55;;;;;;;;;38.00;26.33;;;;;24.92;64.28;100809.09;5037902;28;45501;-64
2023/08/18 06:49:21;;;;;;;;;27.00;24.00;;;;;25.10;63.61;100839.34;5038094;28;45644;-62
2023/08/18 06:51:46;;;;;;;;;27.33;26.00;;;;;24.96;64.37;100819.56;5038635;28;45685;-64
2023/08/18 06:54:13;;;;;;;;;28.00;24.00;;;;;25.04;64.12;100826.31;5038769;28;45434;-63
2023/08/18 06:56:39;;;;;;;;;23.33;21.00;;;;;25.15;64.10;100827.41;5037335;28;45404;-62
2023/08/18 06:59:05;;;;;;;;;32.67;29.67;;;;;25.24;63.87;100826.03;5036966;28;46050;-65
2023/08/18 07:01:30;;;;;;;;;24.00;22.67;;;;;25.04;64.30;100805.72;5035924;28;45398;-64
2023/08/18 07:04:08;;;;;;;;;24.67;23.00;;;;;25.25;64.19;100826.88;5037152;28;45369;-64
2023/08/18 07:06:34;;;;;;;;;27.67;24.33;;;;;25.21;63.69;100826.22;5035787;28;45687;-64
2023/08/18 07:09:01;;;;;;;;;27.33;25.00;;;;;25.15;63.99;100830.09;5037464;28;45453;-62
2023/08/18 07:11:26;;;;;;;;;27.67;21.33;;;;;25.25;63.67;100841.19;5036620;28;45474;-64
2023/08/18 07:13:52;;;;;;;;;27.67;22.67;;;;;25.22;63.61;100813.69;5034217;28;45420;-64
2023/08/18 07:16:25;;;;;;;;;26.00;24.00;;;;;25.29;63.62;100834.66;5032608;28;45578;-64
2023/08/18 07:18:51;;;;;;;;;29.33;27.33;;;;;25.35;63.70;100830.78;5022742;28;45552;-64
2023/08/18 07:21:16;;;;;;;;;28.67;24.00;;;;;25.30;63.95;100817.66;5036167;28;45341;-67
2023/08/18 07:23:42;;;;;;;;;32.00;26.33;;;;;25.31;63.87;100843.50;5037767;28;45364;-64
2023/08/18 07:26:11;;;;;;;;;33.33;26.67;;;;;24.90;64.62;100797.63;5037024;28;45553;-65
2023/08/18 07:28:36;;;;;;;;;29.00;27.67;;;;;25.03;64.98;100838.81;5036776;28;45644;-65
2023/08/18 07:31:07;;;;;;;;;28.33;28.33;;;;;24.97;65.15;100842.72;5034642;28;45617;-65
2023/08/18 07:33:34;;;;;;;;;29.00;26.33;;;;;25.00;65.28;100841.66;5036372;28;45689;-65
2023/08/18 07:36:09;;;;;;;;;34.67;25.67;;;;;24.86;66.03;100830.88;5035109;28;45458;-62
2023/08/18 07:38:35;;;;;;;;;26.33;26.00;;;;;24.89;65.92;100836.94;5036236;28;46037;-63
2023/08/18 07:41:04;;;;;;;;;32.00;26.33;;;;;24.97;65.59;100841.84;5036099;28;45455;-62
2023/08/18 07:43:36;;;;;;;;;26.00;25.67;;;;;24.90;65.59;100837.78;5028947;28;45662;-63
2023/08/18 07:46:02;;;;;;;;;28.33;24.67;;;;;24.86;66.37;100847.81;5037925;28;45370;-65
2023/08/18 07:48:31;;;;;;;;;30.00;28.67;;;;;24.81;66.09;100836.50;5035864;28;45877;-62
2023/08/18 07:50:56;;;;;;;;;28.67;25.67;;;;;24.89;66.19;100844.09;5036098;28;45493;-62
2023/08/18 07:53:22;;;;;;;;;30.33;27.33;;;;;24.98;66.01;100848.94;5037099;28;45337;-63
2023/08/18 07:55:51;;;;;;;;;27.00;25.33;;;;;25.11;65.96;100855.34;5035117;28;45418;-62
2023/08/18 07:58:21;;;;;;;;;29.67;26.33;;;;;25.33;65.15;100854.13;5034965;28;45505;-64
2023/08/18 08:00:47;;;;;;;;;32.33;27.33;;;;;25.46;64.26;100839.06;5036099;28;45441;-63
2023/08/18 08:03:13;;;;;;;;;26.67;23.67;;;;;25.66;64.16;100850.44;5036185;28;45476;-63
2023/08/18 08:05:39;;;;;;;;;29.33;28.67;;;;;25.65;64.03;100860.31;5037311;28;45346;-64
2023/08/18 08:08:05;;;;;;;;;24.00;22.00;;;;;25.75;64.04;100857.94;5036078;28;46923;-64
2023/08/18 08:10:31;;;;;;;;;23.00;22.00;;;;;25.90;63.35;100859.72;5029195;28;45442;-64
2023/08/18 08:12:57;;;;;;;;;22.00;21.67;;;;;26.12;62.77;100858.41;5024072;28;45628;-64
2023/08/18 08:15:25;;;;;;;;;26.00;21.67;;;;;26.33;61.76;100846.34;5033458;28;45908;-64
2023/08/18 08:18:07;;;;;;;;;24.67;22.33;;;;;26.65;61.61;100856.94;5032140;28;45473;-64
2023/08/18 08:20:33;;;;;;;;;26.33;22.33;;;;;26.70;60.92;100819.03;5034219;28;45499;-64
2023/08/18 08:22:58;;;;;;;;;29.33;27.67;;;;;26.98;60.41;100844.97;5033009;28;45578;-63
2023/08/18 08:25:24;;;;;;;;;33.00;26.33;;;;;27.01;60.08;100842.94;5032236;28;45527;-65
2023/08/18 08:27:52;;;;;;;;;28.67;26.33;;;;;27.10;59.51;100851.38;5032730;28;46667;-64
2023/08/18 08:30:18;;;;;;;;;26.00;24.33;;;;;27.12;60.07;100855.69;5032886;28;45392;-63
2023/08/18 08:32:44;;;;;;;;;25.33;24.00;;;;;26.93;60.38;100850.63;5032730;28;45406;-63
2023/08/18 08:35:09;;;;;;;;;28.67;25.67;;;;;26.84;60.72;100851.25;5033879;28;45375;-64
2023/08/18 08:37:35;;;;;;;;;26.00;21.67;;;;;27.02;60.43;100847.34;5033235;28;45471;-63
2023/08/18 08:40:00;;;;;;;;;28.00;24.67;;;;;27.04;60.63;100844.56;5032764;28;45500;-63
2023/08/18 08:42:40;;;;;;;;;28.00;26.33;;;;;26.99;60.51;100831.44;5032514;28;45595;-63
2023/08/18 08:45:05;;;;;;;;;31.00;26.67;;;;;27.04;60.24;100832.00;5033617;28;45555;-64
2023/08/18 08:47:31;;;;;;;;;25.00;25.00;;;;;27.03;60.75;100835.66;5033136;28;46005;-64
2023/08/18 08:50:02;;;;;;;;;29.67;25.33;;;;;27.03;60.75;100835.66;5032295;28;45491;-64
2023/08/18 08:52:35;;;;;;;;;31.67;27.67;;;;;26.85;61.05;100831.47;5034040;28;45434;-64
2023/08/18 08:55:02;;;;;;;;;19.00;19.00;;;;;26.86;61.17;100830.50;5032263;28;46608;-65
2023/08/18 08:57:32;;;;;;;;;25.00;22.50;;;;;26.84;61.24;100821.69;5029378;28;45387;-64
2023/08/18 08:59:58;;;;;;;;;34.33;26.00;;;;;26.75;60.99;100790.91;5032495;28;45511;-62
2023/08/18 09:02:24;;;;;;;;;27.33;27.33;;;;;26.98;61.07;100826.16;5045915;28;45543;-63
2023/08/18 09:04:50;;;;;;;;;30.33;27.33;;;;;26.93;61.02;100818.38;5029550;28;45732;-65
2023/08/18 09:07:15;;;;;;;;;26.33;26.33;;;;;27.01;61.09;100816.06;5033729;28;45578;-65
2023/08/18 09:09:42;;;;;;;;;28.67;25.33;;;;;27.12;61.10;100811.81;5032226;28;45367;-62
2023/08/18 09:12:10;;;;;;;;;30.33;28.67;;;;;27.17;61.16;100798.91;5038148;28;45418;-63
2023/08/18 09:14:40;;;;;;;;;26.33;25.67;;;;;27.35;60.87;100813.84;5037546;28;45853;-62
2023/08/18 09:17:06;;;;;;;;;26.33;24.33;;;;;27.40;60.60;100795.56;5037531;28;45473;-62
2023/08/18 09:19:32;;;;;;;;;25.33;25.00;;;;;27.56;60.83;100803.47;5033553;28;45510;-62
2023/08/18 09:22:00;;;;;;;;;27.67;26.00;;;;;27.62;60.11;100804.88;5035357;28;45913;-63
2023/08/18 09:24:30;;;;;;;;;27.33;25.33;;;;;27.70;59.98;100810.63;5054824;28;45390;-63
2023/08/18 09:27:08;;;;;;;;;24.67;24.67;;;;;27.79;59.72;100806.44;5039268;28;45407;-63
2023/08/18 09:29:36;;;;;;;;;28.33;26.00;;;;;27.82;59.72;100811.59;5038586;28;45480;-63
2023/08/18 09:32:02;;;;;;;;;29.33;23.67;;;;;27.75;60.18;100803.06;5038014;28;45617;-62
2023/08/18 09:34:28;;;;;;;;;28.00;24.00;;;;;27.79;59.76;100809.13;5038359;28;45486;-62
2023/08/18 09:36:55;;;;;;;;;26.75;23.25;;;;;27.91;59.96;100809.16;5038467;28;46242;-63
2023/08/18 09:39:21;;;;;;;;;29.67;26.33;;;;;28.13;59.58;100811.19;5038520;28;45402;-62
2023/08/18 09:41:50;;;;;;;;;27.67;24.67;;;;;28.32;59.49;100802.66;5039182;28;45774;-65
2023/08/18 09:44:16;;;;;;;;;27.67;23.67;;;;;28.44;58.89;100810.84;5038729;28;45812;-63
2023/08/18 09:46:48;;;;;;;;;29.00;28.33;;;;;28.58;58.09;100807.19;5038122;28;45497;-63
2023/08/18 09:49:17;;;;;;;;;29.67;26.33;;;;;28.83;58.02;100798.16;5037772;28;45514;-65
2023/08/18 09:51:44;;;;;;;;;23.00;22.25;;;;;29.02;57.14;100793.16;5038699;28;45553;-63
2023/08/18 09:54:12;;;;;;;;;22.75;21.25;;;;;29.16;56.88;100784.03;5039609;28;46170;-64
2023/08/18 09:56:39;;;;;;;;;24.50;23.25;;;;;29.24;56.90;100788.88;5038663;28;45572;-63
2023/08/18 09:59:27;;;;;;;;;25.67;23.67;;;;;28.98;56.46;100769.22;5036226;28;45583;-63
2023/08/18 10:01:53;;;;;;;;;23.00;22.75;;;;;28.97;57.45;100781.81;5024697;28;45282;-63
2023/08/18 10:04:24;;;;;;;;;23.25;21.25;;;;;28.90;57.09;100775.16;5037196;28;45452;-63
2023/08/18 10:06:52;;;;;;;;;25.00;24.33;;;;;28.87;57.08;100778.09;5037343;28;45584;-63
2023/08/18 10:09:21;;;;;;;;;24.33;24.00;;;;;28.85;57.12;100775.50;5037714;28;45354;-63
2023/08/18 10:11:46;;;;;;;;;25.25;22.75;;;;;28.78;57.61;100770.69;5038015;28;45460;-63
2023/08/18 10:14:13;;;;;;;;;25.00;23.50;;;;;28.85;57.18;100774.66;5038247;28;45329;-63
2023/08/18 10:16:39;;;;;;;;;28.67;24.67;;;;;28.82;56.68;100773.06;5038150;28;46316;-64
2023/08/18 10:19:05;;;;;;;;;22.25;22.00;;;;;28.80;56.95;100766.91;5037668;28;45325;-62
2023/08/18 10:21:30;;;;;;;;;23.50;19.25;;;;;28.89;56.58;100781.56;5037536;28;45366;-62
2023/08/18 10:23:56;;;;;;;;;20.75;19.25;;;;;28.94;56.62;100776.66;5037920;28;45548;-65
2023/08/18 10:26:29;;;;;;;;;21.75;21.75;;;;;28.99;56.40;100765.53;5037715;28;45545;-63
2023/08/18 10:29:13;;;;;;;;;19.25;17.25;;;;;28.99;56.41;100754.75;5039392;28;45294;-64
2023/08/18 10:31:44;;;;;;;;;24.25;21.50;;;;;28.97;56.50;100757.56;5039257;28;45565;-64
2023/08/18 10:34:20;;;;;;;;;22.00;20.25;;;;;28.96;56.09;100751.31;5038221;28;45374;-64
2023/08/18 10:36:45;;;;;;;;;23.75;19.75;;;;;28.91;56.16;100741.88;5037394;28;45426;-62
2023/08/18 10:39:26;;;;;;;;;21.00;19.25;;;;;28.98;55.91;100753.91;5037676;28;45369;-64
2023/08/18 10:42:24;;;;;;;;;17.00;17.00;;;;;28.93;56.10;100753.41;5036007;28;45481;-62
2023/08/18 10:45:21;;;;;;;;;20.75;19.00;;;;;28.83;56.38;100752.34;5025637;28;45343;-66
2023/08/18 10:47:46;;;;;;;;;24.50;21.25;;;;;28.87;56.68;100756.53;5037283;28;45502;-63
2023/08/18 10:50:14;;;;;;;;;20.25;18.75;;;;;28.96;56.69;100748.63;5035922;28;45492;-64
2023/08/18 10:52:40;;;;;;;;;21.50;19.00;;;;;29.11;56.52;100749.31;5037377;28;45346;-63
2023/08/18 10:55:06;;;;;;;;;19.00;18.25;;;;;29.22;55.99;100753.91;5037769;28;45456;-64
2023/08/18 10:57:33;;;;;;;;;15.75;15.75;;;;;29.30;55.90;100756.03;5037632;28;46605;-65
2023/08/18 11:00:00;;;;;;;;;24.00;20.50;;;;;29.37;55.78;100751.88;5036648;28;45743;-66
2023/08/18 11:02:26;;;;;;;;;20.75;19.50;;;;;29.42;55.20;100756.91;5037211;28;45593;-65
2023/08/18 11:04:52;;;;;;;;;18.50;18.25;;;;;29.45;55.55;100762.06;5037918;28;45459;-65
2023/08/18 11:07:20;;;;;;;;;22.75;19.75;;;;;29.46;55.61;100761.09;5038653;28;45776;-63
2023/08/18 11:09:46;;;;;;;;;22.00;20.75;;;;;29.34;55.81;100760.22;5038209;28;45465;-64
2023/08/18 11:12:13;;;;;;;;;23.25;18.50;;;;;29.37;55.94;100762.66;5037473;28;45350;-63
2023/08/18 11:14:39;;;;;;;;;21.25;17.75;;;;;29.38;56.27;100772.50;5035886;28;45482;-63
2023/08/18 11:17:06;;;;;;;;;19.25;18.75;;;;;29.44;55.79;100773.84;5036739;28;46553;-63